createdAt,value
2017-10-06T00:00:01.291Z,9.7
2017-10-06T00:01:03.723Z,9.7
2017-10-06T00:02:06.494Z,9.7
2017-10-06T00:03:08.932Z,9.7
2017-10-06T00:04:11.359Z,9.7
2017-10-06T00:05:14.146Z,9.7
2017-10-06T00:06:16.582Z,9.7
2017-10-06T00:07:19.015Z,9.7
2017-10-06T00:08:21.456Z,9.7
2017-10-06T00:09:23.892Z,9.7
2017-10-06T00:10:26.326Z,9.7
2017-10-06T00:11:28.754Z,9.7
2017-10-06T00:12:31.192Z,9.7
2017-10-06T00:13:33.628Z,9.7
2017-10-06T00:14:36.064Z,9.7
2017-10-06T00:15:38.512Z,9.7
2017-10-06T00:16:40.933Z,9.7
2017-10-06T00:17:43.375Z,9.7
2017-10-06T00:18:45.803Z,9.7
2017-10-06T00:19:48.234Z,9.7
2017-10-06T00:20:50.670Z,9.7
2017-10-06T00:21:53.106Z,9.7
2017-10-06T00:22:55.534Z,9.7
2017-10-06T00:23:58.316Z,9.7
2017-10-06T00:25:00.758Z,9.7
2017-10-06T00:26:03.201Z,9.7
2017-10-06T00:27:05.630Z,9.7
2017-10-06T00:28:08.071Z,9.7
2017-10-06T00:29:10.505Z,9.7
2017-10-06T00:30:12.938Z,9.7
2017-10-06T00:31:15.371Z,9.8
2017-10-06T00:32:17.795Z,9.7
2017-10-06T00:33:20.577Z,9.7
2017-10-06T00:34:23.010Z,9.7
2017-10-06T00:35:25.467Z,9.7
2017-10-06T00:36:27.887Z,9.7
2017-10-06T00:37:30.324Z,9.7
2017-10-06T00:38:32.759Z,9.6
2017-10-06T00:39:35.206Z,9.7
2017-10-06T00:40:37.642Z,9.7
2017-10-06T00:41:40.062Z,9.7
2017-10-06T00:42:42.503Z,9.7
2017-10-06T00:43:44.947Z,9.7
2017-10-06T00:44:47.387Z,9.7
2017-10-06T00:45:49.821Z,9.7
2017-10-06T00:46:52.253Z,9.6
2017-10-06T00:47:54.684Z,9.6
2017-10-06T00:48:57.126Z,9.7
2017-10-06T00:49:59.900Z,9.6
2017-10-06T00:51:02.319Z,9.6
2017-10-06T00:52:04.758Z,9.6
2017-10-06T00:53:07.190Z,9.6
2017-10-06T00:54:09.622Z,9.6
2017-10-06T00:55:12.439Z,9.6
2017-10-06T00:56:14.868Z,9.6
2017-10-06T00:57:17.303Z,9.6
2017-10-06T00:58:19.754Z,9.6
2017-10-06T00:59:22.182Z,9.6
2017-10-06T01:00:24.611Z,9.6
2017-10-06T01:01:27.042Z,9.6
2017-10-06T01:02:29.478Z,9.6
2017-10-06T01:03:31.912Z,9.6
2017-10-06T01:04:34.360Z,9.6
2017-10-06T01:05:36.776Z,9.7
2017-10-06T01:06:39.211Z,9.7
2017-10-06T01:07:41.657Z,9.7
2017-10-06T01:08:44.090Z,9.7
2017-10-06T01:09:46.527Z,9.7
2017-10-06T01:10:48.956Z,9.7
2017-10-06T01:11:51.395Z,9.7
2017-10-06T01:12:53.840Z,9.7
2017-10-06T01:13:56.276Z,9.6
2017-10-06T01:14:59.391Z,9.7
2017-10-06T01:16:01.822Z,9.7
2017-10-06T01:17:04.254Z,9.7
2017-10-06T01:18:06.687Z,9.6
2017-10-06T01:19:09.120Z,9.6
2017-10-06T01:20:11.541Z,9.6
2017-10-06T01:21:13.978Z,9.6
2017-10-06T01:22:16.421Z,9.6
2017-10-06T01:23:19.207Z,9.6
2017-10-06T01:24:21.636Z,9.6
2017-10-06T01:25:24.069Z,9.6
2017-10-06T01:26:26.503Z,9.6
2017-10-06T01:27:28.943Z,9.5
2017-10-06T01:28:31.375Z,9.5
2017-10-06T01:29:33.819Z,9.5
2017-10-06T01:30:36.242Z,9.5
2017-10-06T01:31:38.686Z,9.5
2017-10-06T01:32:41.122Z,9.5
2017-10-06T01:33:43.558Z,9.5
2017-10-06T01:34:45.994Z,9.5
2017-10-06T01:35:48.428Z,9.4
2017-10-06T01:36:50.858Z,9.5
2017-10-06T01:37:53.296Z,9.5
2017-10-06T01:38:55.726Z,9.5
2017-10-06T01:39:58.161Z,9.5
2017-10-06T01:41:00.598Z,9.5
2017-10-06T01:42:03.381Z,9.5
2017-10-06T01:43:05.816Z,9.4
2017-10-06T01:44:08.258Z,9.4
2017-10-06T01:45:10.675Z,9.4
2017-10-06T01:46:13.125Z,9.4
2017-10-06T01:47:15.560Z,9.4
2017-10-06T01:48:17.996Z,9.4
2017-10-06T01:49:20.434Z,9.4
2017-10-06T01:50:22.869Z,9.4
2017-10-06T01:51:25.303Z,9.4
2017-10-06T01:52:27.741Z,9.4
2017-10-06T01:53:30.520Z,9.4
2017-10-06T01:54:32.957Z,9.4
2017-10-06T01:55:35.374Z,9.4
2017-10-06T01:56:37.818Z,9.4
2017-10-06T01:57:40.248Z,9.4
2017-10-06T01:58:42.690Z,9.4
2017-10-06T01:59:45.127Z,9.4
2017-10-06T02:00:47.935Z,9.4
2017-10-06T02:01:50.368Z,9.4
2017-10-06T02:02:52.809Z,9.4
2017-10-06T02:03:55.231Z,9.3
2017-10-06T02:04:57.666Z,9.3
2017-10-06T02:06:00.089Z,9.3
2017-10-06T02:07:02.519Z,9.3
2017-10-06T02:08:04.963Z,9.3
2017-10-06T02:09:08.100Z,9.3
2017-10-06T02:10:10.524Z,9.3
2017-10-06T02:11:12.965Z,9.3
2017-10-06T02:12:15.395Z,9.3
2017-10-06T02:13:17.832Z,9.3
2017-10-06T02:14:20.263Z,9.3
2017-10-06T02:15:22.702Z,9.3
2017-10-06T02:16:25.131Z,9.3
2017-10-06T02:17:27.576Z,9.3
2017-10-06T02:18:30.008Z,9.3
2017-10-06T02:19:32.778Z,9.3
2017-10-06T02:20:35.210Z,9.3
2017-10-06T02:21:37.987Z,9.2
2017-10-06T02:22:40.420Z,9.2
2017-10-06T02:23:42.849Z,9.2
2017-10-06T02:24:45.276Z,9.2
2017-10-06T02:25:48.058Z,9.2
2017-10-06T02:26:50.491Z,9.2
2017-10-06T02:27:52.930Z,9.2
2017-10-06T02:28:55.712Z,9.2
2017-10-06T02:29:58.143Z,9.2
2017-10-06T02:31:00.586Z,9.2
2017-10-06T02:32:03.018Z,9.2
2017-10-06T02:33:05.785Z,9.2
2017-10-06T02:34:08.220Z,9.2
2017-10-06T02:35:10.650Z,9.2
2017-10-06T02:36:13.090Z,9.2
2017-10-06T02:37:15.526Z,9.2
2017-10-06T02:38:17.958Z,9.2
2017-10-06T02:39:20.384Z,9.2
2017-10-06T02:40:22.823Z,9.2
2017-10-06T02:41:25.248Z,9.2
2017-10-06T02:42:27.680Z,9.2
2017-10-06T02:43:30.115Z,9.2
2017-10-06T02:44:32.552Z,9.2
2017-10-06T02:45:35.001Z,9.2
2017-10-06T02:46:37.431Z,9.3
2017-10-06T02:47:39.866Z,9.3
2017-10-06T02:48:42.300Z,9.3
2017-10-06T02:49:45.075Z,9.3
2017-10-06T02:50:47.507Z,9.3
2017-10-06T02:51:49.935Z,9.3
2017-10-06T02:52:52.363Z,9.3
2017-10-06T02:53:54.811Z,9.3
2017-10-06T02:54:57.247Z,9.3
2017-10-06T02:55:59.691Z,9.4
2017-10-06T02:57:02.123Z,9.4
2017-10-06T02:58:04.556Z,9.4
2017-10-06T02:59:06.993Z,9.3
2017-10-06T03:00:09.433Z,9.4
2017-10-06T03:01:11.860Z,9.4
2017-10-06T03:02:14.626Z,9.4
2017-10-06T03:03:17.054Z,9.4
2017-10-06T03:04:19.494Z,9.4
2017-10-06T03:05:22.265Z,9.3
2017-10-06T03:06:24.697Z,9.3
2017-10-06T03:07:27.124Z,9.3
2017-10-06T03:08:29.570Z,9.3
2017-10-06T03:09:32.010Z,9.3
2017-10-06T03:10:34.446Z,9.3
2017-10-06T03:11:36.878Z,9.3
2017-10-06T03:12:39.657Z,9.3
2017-10-06T03:13:42.092Z,9.3
2017-10-06T03:14:44.530Z,9.4
2017-10-06T03:15:46.964Z,9.4
2017-10-06T03:16:49.762Z,9.4
2017-10-06T03:17:52.184Z,9.4
2017-10-06T03:18:54.625Z,9.4
2017-10-06T03:19:57.055Z,9.3
2017-10-06T03:20:59.483Z,9.3
2017-10-06T03:22:01.922Z,9.4
2017-10-06T03:23:04.355Z,9.3
2017-10-06T03:24:06.790Z,9.4
2017-10-06T03:25:09.222Z,9.4
2017-10-06T03:26:11.663Z,9.3
2017-10-06T03:27:14.092Z,9.4
2017-10-06T03:28:16.513Z,9.4
2017-10-06T03:29:18.948Z,9.4
2017-10-06T03:30:21.380Z,9.4
2017-10-06T03:31:23.810Z,9.4
2017-10-06T03:32:26.248Z,9.4
2017-10-06T03:33:28.680Z,9.4
2017-10-06T03:34:31.115Z,9.4
2017-10-06T03:35:33.563Z,9.4
2017-10-06T03:36:35.989Z,9.4
2017-10-06T03:37:38.419Z,9.4
2017-10-06T03:38:40.866Z,9.4
2017-10-06T03:39:43.301Z,9.4
2017-10-06T03:40:45.748Z,9.4
2017-10-06T03:41:48.182Z,9.4
2017-10-06T03:42:50.947Z,9.4
2017-10-06T03:43:53.389Z,9.4
2017-10-06T03:44:55.821Z,9.4
2017-10-06T03:45:58.250Z,9.4
2017-10-06T03:47:00.688Z,9.4
2017-10-06T03:48:03.120Z,9.4
2017-10-06T03:49:05.549Z,9.4
2017-10-06T03:50:08.337Z,9.4
2017-10-06T03:51:10.771Z,9.4
2017-10-06T03:52:13.198Z,9.4
2017-10-06T03:53:15.636Z,9.4
2017-10-06T03:54:18.075Z,9.4
2017-10-06T03:55:20.505Z,9.4
2017-10-06T03:56:22.923Z,9.4
2017-10-06T03:57:25.355Z,9.4
2017-10-06T03:58:27.804Z,9.4
2017-10-06T03:59:30.597Z,9.4
2017-10-06T04:00:33.025Z,9.4
2017-10-06T04:01:35.445Z,9.4
2017-10-06T04:02:37.905Z,9.4
2017-10-06T04:03:40.332Z,9.4
2017-10-06T04:04:43.118Z,9.4
2017-10-06T04:05:45.909Z,9.3
2017-10-06T04:06:48.674Z,9.3
2017-10-06T04:07:51.112Z,9.3
2017-10-06T04:08:53.561Z,9.3
2017-10-06T04:09:56.338Z,9.3
2017-10-06T04:10:58.776Z,9.3
2017-10-06T04:12:01.204Z,9.3
2017-10-06T04:13:03.640Z,9.3
2017-10-06T04:14:06.077Z,9.3
2017-10-06T04:15:08.504Z,9.3
2017-10-06T04:16:10.928Z,9.3
2017-10-06T04:17:13.362Z,9.3
2017-10-06T04:18:15.800Z,9.3
2017-10-06T04:19:18.243Z,9.3
2017-10-06T04:20:20.677Z,9.3
2017-10-06T04:21:23.110Z,9.3
2017-10-06T04:22:25.541Z,9.3
2017-10-06T04:23:27.971Z,9.3
2017-10-06T04:24:30.740Z,9.3
2017-10-06T04:25:33.528Z,9.3
2017-10-06T04:26:35.970Z,9.3
2017-10-06T04:27:38.395Z,9.3
2017-10-06T04:28:40.835Z,9.3
2017-10-06T04:29:43.272Z,9.3
2017-10-06T04:30:45.709Z,9.3
2017-10-06T04:31:48.154Z,9.3
2017-10-06T04:32:50.581Z,9.3
2017-10-06T04:33:53.013Z,9.3
2017-10-06T04:34:55.461Z,9.3
2017-10-06T04:35:57.891Z,9.3
2017-10-06T04:37:00.327Z,9.3
2017-10-06T04:38:02.764Z,9.3
2017-10-06T04:39:05.202Z,9.3
2017-10-06T04:40:07.974Z,9.3
2017-10-06T04:41:10.410Z,9.3
2017-10-06T04:42:12.837Z,9.3
2017-10-06T04:43:15.272Z,9.3
2017-10-06T04:44:17.701Z,9.3
2017-10-06T04:45:20.134Z,9.2
2017-10-06T04:46:22.570Z,9.2
2017-10-06T04:47:25.007Z,9.2
2017-10-06T04:48:27.782Z,9.2
2017-10-06T04:49:30.222Z,9.2
2017-10-06T04:50:32.654Z,9.2
2017-10-06T04:51:35.082Z,9.2
2017-10-06T04:52:37.513Z,9.2
2017-10-06T04:53:39.950Z,9.2
2017-10-06T04:54:42.403Z,9.1
2017-10-06T04:55:44.837Z,9.1
2017-10-06T04:56:47.274Z,9.1
2017-10-06T04:57:50.058Z,9.1
2017-10-06T04:58:52.504Z,9.1
2017-10-06T04:59:54.939Z,9.1
2017-10-06T05:00:57.376Z,9.1
2017-10-06T05:01:59.806Z,9.1
2017-10-06T05:03:02.243Z,9.1
2017-10-06T05:04:04.687Z,9.1
2017-10-06T05:05:07.117Z,9.1
2017-10-06T05:06:09.541Z,9.1
2017-10-06T05:07:11.979Z,9.1
2017-10-06T05:08:14.429Z,9.1
2017-10-06T05:09:16.856Z,9.1
2017-10-06T05:10:19.284Z,9.1
2017-10-06T05:11:22.052Z,9.1
2017-10-06T05:12:24.486Z,9.1
2017-10-06T05:13:26.928Z,9.1
2017-10-06T05:14:29.367Z,9.1
2017-10-06T05:15:31.789Z,9.1
2017-10-06T05:16:34.226Z,9.1
2017-10-06T05:17:36.682Z,9.1
2017-10-06T05:18:39.112Z,9.1
2017-10-06T05:19:41.545Z,9.1
2017-10-06T05:20:43.992Z,9.1
2017-10-06T05:21:46.420Z,9.1
2017-10-06T05:22:48.846Z,9.1
2017-10-06T05:23:51.626Z,9.1
2017-10-06T05:24:54.062Z,9.2
2017-10-06T05:25:56.502Z,9.1
2017-10-06T05:26:58.929Z,9.1
2017-10-06T05:28:01.361Z,9.2
2017-10-06T05:29:03.799Z,9.1
2017-10-06T05:30:06.250Z,9.1
2017-10-06T05:31:08.674Z,9.2
2017-10-06T05:32:11.104Z,9.2
2017-10-06T05:33:13.882Z,9.2
2017-10-06T05:34:16.316Z,9.2
2017-10-06T05:35:18.748Z,9.2
2017-10-06T05:36:21.184Z,9.2
2017-10-06T05:37:23.624Z,9.2
2017-10-06T05:38:26.054Z,9.2
2017-10-06T05:39:28.494Z,9.2
2017-10-06T05:40:30.931Z,9.2
2017-10-06T05:41:33.349Z,9.2
2017-10-06T05:42:35.790Z,9.2
2017-10-06T05:43:38.224Z,9.2
2017-10-06T05:44:40.659Z,9.2
2017-10-06T05:45:43.094Z,9.2
2017-10-06T05:46:45.530Z,9.2
2017-10-06T05:47:47.953Z,9.2
2017-10-06T05:48:50.735Z,9.2
2017-10-06T05:49:53.175Z,9.2
2017-10-06T05:50:55.604Z,9.3
2017-10-06T05:51:58.042Z,9.3
2017-10-06T05:53:00.476Z,9.2
2017-10-06T05:54:03.250Z,9.2
2017-10-06T05:55:06.379Z,9.3
2017-10-06T05:56:08.826Z,9.3
2017-10-06T05:57:11.251Z,9.2
2017-10-06T05:58:14.052Z,9.2
2017-10-06T05:59:16.481Z,9.2
2017-10-06T06:00:18.915Z,9.3
2017-10-06T06:01:21.349Z,9.3
2017-10-06T06:02:23.785Z,9.2
2017-10-06T06:03:26.204Z,9.3
2017-10-06T06:04:28.655Z,9.3
2017-10-06T06:05:31.071Z,9.3
2017-10-06T06:06:33.515Z,9.3
2017-10-06T06:07:35.947Z,9.3
2017-10-06T06:08:38.737Z,9.3
2017-10-06T06:09:41.516Z,9.4
2017-10-06T06:10:43.946Z,9.4
2017-10-06T06:11:46.379Z,9.4
2017-10-06T06:12:48.820Z,9.4
2017-10-06T06:13:51.245Z,9.5
2017-10-06T06:14:53.677Z,9.5
2017-10-06T06:15:56.106Z,9.5
2017-10-06T06:16:58.539Z,9.5
2017-10-06T06:18:00.978Z,9.5
2017-10-06T06:19:03.414Z,9.6
2017-10-06T06:20:05.852Z,9.6
2017-10-06T06:21:08.294Z,9.6
2017-10-06T06:22:10.720Z,9.5
2017-10-06T06:23:13.159Z,9.6
2017-10-06T06:24:15.602Z,9.6
2017-10-06T06:25:18.034Z,9.6
2017-10-06T06:26:20.473Z,9.6
2017-10-06T06:27:22.905Z,9.6
2017-10-06T06:28:25.673Z,9.6
2017-10-06T06:29:28.122Z,9.6
2017-10-06T06:30:30.554Z,9.6
2017-10-06T06:31:32.992Z,9.6
2017-10-06T06:32:35.770Z,9.7
2017-10-06T06:33:38.203Z,9.7
2017-10-06T06:34:40.633Z,9.7
2017-10-06T06:35:43.068Z,9.7
2017-10-06T06:36:45.499Z,9.8
2017-10-06T06:37:48.269Z,9.8
2017-10-06T06:38:50.724Z,9.8
2017-10-06T06:39:53.154Z,9.8
2017-10-06T06:40:55.582Z,9.8
2017-10-06T06:41:58.017Z,9.8
2017-10-06T06:43:00.451Z,9.8
2017-10-06T06:44:02.893Z,9.9
2017-10-06T06:45:05.328Z,9.9
2017-10-06T06:46:07.759Z,9.9
2017-10-06T06:47:10.202Z,9.9
2017-10-06T06:48:12.649Z,9.9
2017-10-06T06:49:15.078Z,9.9
2017-10-06T06:50:17.514Z,9.9
2017-10-06T06:51:19.952Z,9.9
2017-10-06T06:52:22.395Z,9.9
2017-10-06T06:53:24.828Z,9.9
2017-10-06T06:54:27.257Z,9.9
2017-10-06T06:55:29.685Z,9.9
2017-10-06T06:56:32.124Z,9.9
2017-10-06T06:57:34.901Z,9.9
2017-10-06T06:58:37.339Z,9.9
2017-10-06T06:59:40.112Z,9.8
2017-10-06T07:00:42.546Z,9.8
2017-10-06T07:01:44.984Z,9.9
2017-10-06T07:02:47.431Z,9.9
2017-10-06T07:03:49.861Z,9.9
2017-10-06T07:04:52.308Z,9.9
2017-10-06T07:05:54.747Z,9.9
2017-10-06T07:06:57.181Z,9.9
2017-10-06T07:07:59.623Z,9.9
2017-10-06T07:09:02.058Z,9.9
2017-10-06T07:10:04.488Z,9.9
2017-10-06T07:11:06.931Z,9.9
2017-10-06T07:12:09.351Z,9.9
2017-10-06T07:13:12.128Z,9.9
2017-10-06T07:14:14.573Z,9.8
2017-10-06T07:15:17.010Z,9.8
2017-10-06T07:16:19.448Z,9.9
2017-10-06T07:17:21.880Z,9.9
2017-10-06T07:18:24.325Z,9.9
2017-10-06T07:19:26.745Z,9.9
2017-10-06T07:20:29.185Z,9.8
2017-10-06T07:21:31.622Z,9.8
2017-10-06T07:22:34.054Z,9.9
2017-10-06T07:23:36.491Z,9.9
2017-10-06T07:24:38.920Z,9.9
2017-10-06T07:25:41.350Z,9.9
2017-10-06T07:26:43.794Z,9.9
2017-10-06T07:27:46.232Z,9.8
2017-10-06T07:28:48.663Z,9.8
2017-10-06T07:29:51.101Z,9.8
2017-10-06T07:30:53.544Z,9.8
2017-10-06T07:31:55.975Z,9.8
2017-10-06T07:32:58.415Z,9.8
2017-10-06T07:34:00.850Z,9.8
2017-10-06T07:35:03.286Z,9.9
2017-10-06T07:36:05.732Z,9.9
2017-10-06T07:37:08.159Z,9.9
2017-10-06T07:38:10.590Z,9.9
2017-10-06T07:39:13.025Z,9.9
2017-10-06T07:40:15.462Z,10
2017-10-06T07:41:17.893Z,10
2017-10-06T07:42:20.338Z,10
2017-10-06T07:43:22.783Z,10
2017-10-06T07:44:25.221Z,10.1
2017-10-06T07:45:27.667Z,10.1
2017-10-06T07:46:30.095Z,10.1
2017-10-06T07:47:32.538Z,10.1
2017-10-06T07:48:34.968Z,10.1
2017-10-06T07:49:37.412Z,10.2
2017-10-06T07:50:39.838Z,10.2
2017-10-06T07:51:42.268Z,10.2
2017-10-06T07:52:44.723Z,10.2
2017-10-06T07:53:47.153Z,10.2
2017-10-06T07:54:49.591Z,10.3
2017-10-06T07:55:52.036Z,10.3
2017-10-06T07:56:54.479Z,10.4
2017-10-06T07:57:57.259Z,10.4
2017-10-06T07:58:59.706Z,10.4
2017-10-06T08:00:02.141Z,10.4
2017-10-06T08:01:04.578Z,10.4
2017-10-06T08:02:07.021Z,10.3
2017-10-06T08:03:09.477Z,10.4
2017-10-06T08:04:11.920Z,10.4
2017-10-06T08:05:14.355Z,10.4
2017-10-06T08:06:16.793Z,10.4
2017-10-06T08:07:19.230Z,10.4
2017-10-06T08:08:21.670Z,10.4
2017-10-06T08:09:24.105Z,10.5
2017-10-06T08:10:26.554Z,10.5
2017-10-06T08:11:28.992Z,10.5
2017-10-06T08:12:31.429Z,10.6
2017-10-06T08:13:33.874Z,10.7
2017-10-06T08:14:36.316Z,10.7
2017-10-06T08:15:39.089Z,10.7
2017-10-06T08:16:41.526Z,10.7
2017-10-06T08:17:43.970Z,10.8
2017-10-06T08:18:46.396Z,10.9
2017-10-06T08:19:48.835Z,11
2017-10-06T08:20:51.269Z,11
2017-10-06T08:21:54.090Z,11.1
2017-10-06T08:22:56.520Z,11.1
2017-10-06T08:23:58.969Z,11.2
2017-10-06T08:25:01.400Z,11.2
2017-10-06T08:26:03.850Z,11.2
2017-10-06T08:27:06.285Z,11.2
2017-10-06T08:28:08.724Z,11.3
2017-10-06T08:29:11.160Z,11.3
2017-10-06T08:30:13.606Z,11.5
2017-10-06T08:31:16.389Z,11.6
2017-10-06T08:32:18.831Z,11.5
2017-10-06T08:33:21.268Z,11.6
2017-10-06T08:34:23.708Z,11.6
2017-10-06T08:35:26.145Z,11.6
2017-10-06T08:36:28.594Z,11.6
2017-10-06T08:37:31.024Z,11.6
2017-10-06T08:38:33.469Z,11.6
2017-10-06T08:39:35.918Z,11.6
2017-10-06T08:40:38.693Z,11.6
2017-10-06T08:41:41.475Z,11.7
2017-10-06T08:42:43.908Z,11.6
2017-10-06T08:43:46.342Z,11.7
2017-10-06T08:44:48.797Z,11.7
2017-10-06T08:45:51.229Z,11.6
2017-10-06T08:46:53.666Z,11.6
2017-10-06T08:47:56.800Z,11.7
2017-10-06T08:48:59.232Z,11.8
2017-10-06T08:50:01.673Z,11.9
2017-10-06T08:51:04.114Z,11.9
2017-10-06T08:52:06.547Z,12
2017-10-06T08:53:09.336Z,11.9
2017-10-06T08:54:11.772Z,11.9
2017-10-06T08:55:14.210Z,12
2017-10-06T08:56:16.655Z,12
2017-10-06T08:57:19.094Z,12.1
2017-10-06T08:58:21.555Z,12.3
2017-10-06T08:59:23.997Z,12.5
2017-10-06T09:00:26.764Z,12.7
2017-10-06T09:01:29.207Z,12.9
2017-10-06T09:02:31.655Z,13.1
2017-10-06T09:03:34.088Z,13.1
2017-10-06T09:04:36.539Z,13.1
2017-10-06T09:05:38.986Z,13.2
2017-10-06T09:06:41.421Z,13.4
2017-10-06T09:07:43.886Z,13.2
2017-10-06T09:08:46.328Z,13.1
2017-10-06T09:09:48.766Z,13
2017-10-06T09:10:51.211Z,13.1
2017-10-06T09:11:53.658Z,13.1
2017-10-06T09:12:56.096Z,13.2
2017-10-06T09:13:58.553Z,13.3
2017-10-06T09:15:00.994Z,13.4
2017-10-06T09:16:03.433Z,13.3
2017-10-06T09:17:05.871Z,13.3
2017-10-06T09:18:08.331Z,13
2017-10-06T09:19:10.767Z,13
2017-10-06T09:20:13.205Z,13.3
2017-10-06T09:21:15.643Z,13.4
2017-10-06T09:22:18.087Z,13.3
2017-10-06T09:23:20.542Z,13.5
2017-10-06T09:24:22.997Z,13.7
2017-10-06T09:25:25.432Z,13.8
2017-10-06T09:26:27.883Z,13.6
2017-10-06T09:27:30.341Z,13.6
2017-10-06T09:28:32.782Z,13.5
2017-10-06T09:29:35.227Z,13.3
2017-10-06T09:30:37.668Z,13.1
2017-10-06T09:31:40.427Z,13
2017-10-06T09:32:42.964Z,12.9
2017-10-06T09:33:45.424Z,12.8
2017-10-06T09:34:47.863Z,12.9
2017-10-06T09:35:50.355Z,13.1
2017-10-06T09:36:52.793Z,13.1
2017-10-06T09:37:55.229Z,13.3
2017-10-06T09:38:58.181Z,13.3
2017-10-06T09:40:00.606Z,13.5
2017-10-06T09:41:03.054Z,13.4
2017-10-06T09:42:05.505Z,13.3
2017-10-06T09:43:07.947Z,13.3
2017-10-06T09:44:10.398Z,13.4
2017-10-06T09:45:12.843Z,13.2
2017-10-06T09:46:15.282Z,13.2
2017-10-06T09:47:17.745Z,13.1
2017-10-06T09:48:20.195Z,13.1
2017-10-06T09:49:22.637Z,13
2017-10-06T09:50:25.086Z,13.1
2017-10-06T09:51:27.529Z,13.3
2017-10-06T09:52:30.392Z,13.3
2017-10-06T09:53:33.183Z,13.3
2017-10-06T09:54:36.015Z,13.1
2017-10-06T09:55:38.458Z,13.1
2017-10-06T09:56:41.248Z,13
2017-10-06T09:57:43.682Z,13.1
2017-10-06T09:58:46.139Z,13.2
2017-10-06T09:59:48.582Z,13.3
2017-10-06T10:00:51.013Z,13.2
2017-10-06T10:01:53.462Z,13.3
2017-10-06T10:02:55.905Z,13.4
2017-10-06T10:03:58.344Z,13.6
2017-10-06T10:05:00.787Z,13.8
2017-10-06T10:06:03.219Z,13.9
2017-10-06T10:07:06.005Z,14.1
2017-10-06T10:08:08.451Z,14.2
2017-10-06T10:09:11.247Z,14.1
2017-10-06T10:10:13.691Z,14.3
2017-10-06T10:11:16.135Z,14.2
2017-10-06T10:12:18.608Z,14.1
2017-10-06T10:13:21.069Z,13.9
2017-10-06T10:14:23.509Z,13.7
2017-10-06T10:15:25.941Z,13.6
2017-10-06T10:16:28.382Z,13.6
2017-10-06T10:17:30.822Z,13.7
2017-10-06T10:18:33.274Z,13.7
2017-10-06T10:19:35.718Z,13.9
2017-10-06T10:20:38.159Z,13.9
2017-10-06T10:21:40.609Z,13.8
2017-10-06T10:22:43.044Z,13.8
2017-10-06T10:23:45.495Z,13.8
2017-10-06T10:24:47.937Z,13.7
2017-10-06T10:25:50.372Z,13.8
2017-10-06T10:26:52.816Z,13.9
2017-10-06T10:27:55.257Z,14.2
2017-10-06T10:28:57.703Z,14.2
2017-10-06T10:30:00.152Z,14.4
2017-10-06T10:31:02.595Z,14.4
2017-10-06T10:32:05.031Z,14.4
2017-10-06T10:33:07.473Z,14.2
2017-10-06T10:34:09.908Z,14.1
2017-10-06T10:35:12.350Z,14.1
2017-10-06T10:36:14.795Z,14.1
2017-10-06T10:37:17.229Z,14.4
2017-10-06T10:38:20.027Z,14.8
2017-10-06T10:39:22.469Z,15
2017-10-06T10:40:25.255Z,15.1
2017-10-06T10:41:27.708Z,15.1
2017-10-06T10:42:30.154Z,15.1
2017-10-06T10:43:32.602Z,15
2017-10-06T10:44:35.043Z,14.9
2017-10-06T10:45:37.484Z,14.8
2017-10-06T10:46:39.934Z,14.6
2017-10-06T10:47:42.389Z,14.8
2017-10-06T10:48:44.824Z,14.9
2017-10-06T10:49:47.620Z,14.7
2017-10-06T10:50:50.068Z,14.4
2017-10-06T10:51:52.510Z,14.6
2017-10-06T10:52:54.945Z,14.9
2017-10-06T10:53:57.396Z,15.2
2017-10-06T10:54:59.837Z,15.5
2017-10-06T10:56:02.291Z,15.6
2017-10-06T10:57:04.730Z,15.5
2017-10-06T10:58:07.178Z,15.6
2017-10-06T10:59:09.624Z,15.6
2017-10-06T11:00:12.080Z,15.4
2017-10-06T11:01:14.526Z,15.3
2017-10-06T11:02:16.973Z,15
2017-10-06T11:03:19.406Z,14.8
2017-10-06T11:04:21.860Z,14.6
2017-10-06T11:05:24.310Z,14.4
2017-10-06T11:06:26.756Z,14.2
2017-10-06T11:07:29.206Z,13.9
2017-10-06T11:08:31.650Z,13.9
2017-10-06T11:09:34.098Z,13.7
2017-10-06T11:10:36.549Z,13.6
2017-10-06T11:11:38.982Z,13.6
2017-10-06T11:12:41.432Z,13.4
2017-10-06T11:13:43.871Z,13.2
2017-10-06T11:14:46.321Z,13.1
2017-10-06T11:15:48.773Z,13.2
2017-10-06T11:16:51.215Z,13.6
2017-10-06T11:17:53.662Z,13.5
2017-10-06T11:18:56.104Z,13.6
2017-10-06T11:19:58.542Z,13.8
2017-10-06T11:21:00.988Z,13.9
2017-10-06T11:22:03.430Z,14.1
2017-10-06T11:23:05.871Z,14.2
2017-10-06T11:24:08.321Z,14.3
2017-10-06T11:25:10.767Z,14.4
2017-10-06T11:26:13.213Z,14.3
2017-10-06T11:27:16.011Z,14.6
2017-10-06T11:28:18.461Z,14.8
2017-10-06T11:29:21.243Z,14.6
2017-10-06T11:30:23.697Z,14.8
2017-10-06T11:31:26.486Z,14.8
2017-10-06T11:32:28.930Z,14.9
2017-10-06T11:33:31.377Z,14.9
2017-10-06T11:34:33.831Z,15
2017-10-06T11:35:36.280Z,15.3
2017-10-06T11:36:38.728Z,15.5
2017-10-06T11:37:41.510Z,15.5
2017-10-06T11:38:43.960Z,15.8
2017-10-06T11:39:47.241Z,15.9
2017-10-06T11:40:49.684Z,16
2017-10-06T11:41:52.130Z,16
2017-10-06T11:42:54.895Z,16.1
2017-10-06T11:43:57.964Z,16.2
2017-10-06T11:45:00.419Z,16.4
2017-10-06T11:46:02.872Z,16.7
2017-10-06T11:47:05.322Z,16.5
2017-10-06T11:48:07.760Z,16.5
2017-10-06T11:49:10.209Z,16.8
2017-10-06T11:50:12.659Z,17
2017-10-06T11:51:15.106Z,16.7
2017-10-06T11:52:17.557Z,16.4
2017-10-06T11:53:20.009Z,16.4
2017-10-06T11:54:22.463Z,16.6
2017-10-06T11:55:24.931Z,16.8
2017-10-06T11:56:27.376Z,16.7
2017-10-06T11:57:29.820Z,16.6
2017-10-06T11:58:32.270Z,16.8
2017-10-06T11:59:34.727Z,16.7
2017-10-06T12:00:37.177Z,16.8
2017-10-06T12:01:39.637Z,17.1
2017-10-06T12:02:42.335Z,17.3
2017-10-06T12:03:46.104Z,17.3
2017-10-06T12:04:48.580Z,17.3
2017-10-06T12:05:51.034Z,17.2
2017-10-06T12:06:53.481Z,17
2017-10-06T12:07:55.926Z,16.8
2017-10-06T12:08:58.371Z,16.7
2017-10-06T12:10:00.831Z,16.8
2017-10-06T12:11:03.625Z,16.9
2017-10-06T12:12:06.417Z,17
2017-10-06T12:13:09.234Z,17
2017-10-06T12:14:11.696Z,16.5
2017-10-06T12:15:14.141Z,16.3
2017-10-06T12:16:16.586Z,16.4
2017-10-06T12:17:19.037Z,16.7
2017-10-06T12:18:21.835Z,16.7
2017-10-06T12:19:24.277Z,16.9
2017-10-06T12:20:26.735Z,17
2017-10-06T12:21:29.192Z,17.2
2017-10-06T12:22:31.644Z,17
2017-10-06T12:23:34.442Z,17
2017-10-06T12:24:36.899Z,17.1
2017-10-06T12:25:39.349Z,16.5
2017-10-06T12:26:41.799Z,16.2
2017-10-06T12:27:44.250Z,16
2017-10-06T12:28:46.686Z,15.9
2017-10-06T12:29:49.158Z,15.7
2017-10-06T12:30:51.607Z,15.7
2017-10-06T12:31:54.054Z,15.7
2017-10-06T12:32:56.511Z,15.8
2017-10-06T12:33:58.951Z,15.8
2017-10-06T12:35:01.396Z,15.8
2017-10-06T12:36:03.866Z,15.8
2017-10-06T12:37:06.302Z,15.7
2017-10-06T12:38:08.750Z,15.4
2017-10-06T12:39:11.208Z,15.5
2017-10-06T12:40:13.661Z,15.3
2017-10-06T12:41:16.115Z,15.3
2017-10-06T12:42:18.569Z,15.1
2017-10-06T12:43:21.010Z,15
2017-10-06T12:44:24.157Z,14.9
2017-10-06T12:45:26.599Z,14.8
2017-10-06T12:46:29.400Z,14.7
2017-10-06T12:47:31.845Z,14.7
2017-10-06T12:48:34.294Z,14.7
2017-10-06T12:49:36.741Z,14.8
2017-10-06T12:50:39.182Z,14.7
2017-10-06T12:51:41.640Z,14.6
2017-10-06T12:52:44.084Z,14.5
2017-10-06T12:53:46.523Z,14.5
2017-10-06T12:54:49.312Z,14.5
2017-10-06T12:55:51.760Z,14.4
2017-10-06T12:56:54.558Z,14.4
2017-10-06T12:57:57.006Z,14.3
2017-10-06T12:58:59.446Z,14.2
2017-10-06T13:00:01.899Z,14.4
2017-10-06T13:01:04.343Z,14.7
2017-10-06T13:02:06.773Z,14.7
2017-10-06T13:03:09.223Z,14.8
2017-10-06T13:04:11.677Z,14.8
2017-10-06T13:05:14.125Z,14.6
2017-10-06T13:06:16.574Z,14.7
2017-10-06T13:07:19.020Z,14.9
2017-10-06T13:08:21.469Z,14.8
2017-10-06T13:09:23.917Z,14.9
2017-10-06T13:10:26.359Z,14.8
2017-10-06T13:11:28.795Z,14.8
2017-10-06T13:12:31.942Z,14.9
2017-10-06T13:13:34.387Z,14.9
2017-10-06T13:14:36.829Z,15
2017-10-06T13:15:39.275Z,15.1
2017-10-06T13:16:41.937Z,15.4
2017-10-06T13:17:44.394Z,15.4
2017-10-06T13:18:47.173Z,15.3
2017-10-06T13:19:49.625Z,15.3
2017-10-06T13:20:52.078Z,15.4
2017-10-06T13:21:54.520Z,15.5
2017-10-06T13:22:56.963Z,15.6
2017-10-06T13:23:59.413Z,15.6
2017-10-06T13:25:01.848Z,15.7
2017-10-06T13:26:04.674Z,15.6
2017-10-06T13:27:07.117Z,15.6
2017-10-06T13:28:09.564Z,15.5
2017-10-06T13:29:12.005Z,15.4
2017-10-06T13:30:14.448Z,15.4
2017-10-06T13:31:16.889Z,15.7
2017-10-06T13:32:19.334Z,15.9
2017-10-06T13:33:21.784Z,15.8
2017-10-06T13:34:24.231Z,15.8
2017-10-06T13:35:26.692Z,15.8
2017-10-06T13:36:29.127Z,15.9
2017-10-06T13:37:31.590Z,15.9
2017-10-06T13:38:34.030Z,16
2017-10-06T13:39:36.479Z,16.1
2017-10-06T13:40:38.928Z,16
2017-10-06T13:41:41.717Z,15.8
2017-10-06T13:42:44.159Z,16.1
2017-10-06T13:43:46.610Z,16.2
2017-10-06T13:44:49.062Z,16.1
2017-10-06T13:45:51.512Z,16.2
2017-10-06T13:46:53.952Z,16.2
2017-10-06T13:47:56.408Z,16.5
2017-10-06T13:48:59.208Z,16.5
2017-10-06T13:50:01.657Z,16.4
2017-10-06T13:51:04.109Z,16.6
2017-10-06T13:52:06.549Z,16.4
2017-10-06T13:53:08.998Z,16.3
2017-10-06T13:54:11.443Z,16.1
2017-10-06T13:55:13.896Z,16.2
2017-10-06T13:56:16.341Z,16.3
2017-10-06T13:57:18.794Z,16.3
2017-10-06T13:58:21.234Z,16.1
2017-10-06T13:59:23.692Z,16.1
2017-10-06T14:00:26.142Z,16.2
2017-10-06T14:01:28.578Z,16.3
2017-10-06T14:02:31.035Z,16.3
2017-10-06T14:03:33.483Z,16
2017-10-06T14:04:35.936Z,16.3
2017-10-06T14:05:38.378Z,16.3
2017-10-06T14:06:40.823Z,16.3
2017-10-06T14:07:43.265Z,16.1
2017-10-06T14:08:45.724Z,16.1